Time;durP1;ratioP1;P1;durP2;ratioP2;P2;SDS_P1;SDS_P2;PMS_P1;PMS_P2;Temp;Humidity;BMP_temperature;BMP_pressure;BME280_temperature;BME280_humidity;BME280_pressure;Samples;Min_cycle;Max_cycle;Signal;HPM_P1;HPM_P2
2023/02/17 00:02:14;;;;;;;26.15;17.83;;;10.80;95.90;;;;;;5012957;28;20029;-66
2023/02/17 00:05:00;;;;;;;23.92;16.88;;;10.90;95.70;;;;;;5009990;28;20116;-66
2023/02/17 00:07:46;;;;;;;23.42;17.02;;;10.80;95.70;;;;;;5009922;28;20026;-66
2023/02/17 00:10:32;;;;;;;27.25;18.00;;;10.80;95.80;;;;;;5009215;28;20060;-66
2023/02/17 00:13:18;;;;;;;25.63;18.48;;;10.80;96.00;;;;;;5010453;28;20038;-66
2023/02/17 00:16:17;;;;;;;24.77;18.77;;;10.80;96.10;;;;;;5011234;28;20065;-66
2023/02/17 00:19:22;;;;;;;27.13;19.10;;;10.80;96.30;;;;;;5011178;28;20104;-66
2023/02/17 00:22:08;;;;;;;26.30;18.53;;;10.80;96.40;;;;;;5010218;28;20037;-66
2023/02/17 00:24:54;;;;;;;27.17;18.25;;;10.70;96.40;;;;;;5010754;28;20403;-66
2023/02/17 00:27:39;;;;;;;23.48;17.50;;;10.70;96.60;;;;;;5010086;28;20022;-66
2023/02/17 00:30:26;;;;;;;30.20;19.17;;;10.70;96.70;;;;;;5011734;28;20555;-66
2023/02/17 00:33:12;;;;;;;27.27;19.17;;;10.70;96.90;;;;;;5011387;28;20116;-66
2023/02/17 00:35:57;;;;;;;26.95;18.50;;;10.60;97.10;;;;;;5011261;28;20034;-66
2023/02/17 00:38:44;;;;;;;27.33;19.05;;;10.60;97.10;;;;;;5010348;28;20037;-66
2023/02/17 00:41:30;;;;;;;27.38;19.95;;;10.60;97.20;;;;;;5010168;28;20033;-66
2023/02/17 00:44:18;;;;;;;28.15;16.92;;;10.60;97.30;;;;;;5013516;28;20112;-66
2023/02/17 00:47:04;;;;;;;25.08;17.35;;;10.60;97.40;;;;;;5014763;28;20036;-65
2023/02/17 00:49:50;;;;;;;28.88;17.67;;;10.50;97.40;;;;;;5011247;28;20036;-65
2023/02/17 00:52:36;;;;;;;24.83;18.55;;;10.60;97.50;;;;;;5010089;28;20394;-66
2023/02/17 00:55:22;;;;;;;27.92;18.65;;;10.50;97.50;;;;;;5007798;28;20540;-66
2023/02/17 00:58:08;;;;;;;26.65;18.73;;;10.50;97.60;;;;;;5010408;28;20033;-66
2023/02/17 01:00:55;;;;;;;26.08;18.33;;;10.60;97.70;;;;;;5010239;28;20485;-65
2023/02/17 01:03:41;;;;;;;25.95;17.95;;;10.50;97.80;;;;;;5009211;28;20173;-66
2023/02/17 01:06:32;;;;;;;31.58;20.65;;;10.50;97.90;;;;;;5008780;28;20403;-65
2023/02/17 01:09:18;;;;;;;26.05;18.42;;;10.50;98.00;;;;;;5007205;28;20392;-65
2023/02/17 01:12:04;;;;;;;29.45;18.55;;;10.50;98.10;;;;;;5010371;28;20052;-66
2023/02/17 01:14:50;;;;;;;23.80;17.48;;;10.50;98.10;;;;;;5009751;28;20064;-65
2023/02/17 01:17:36;;;;;;;25.23;18.67;;;10.50;98.10;;;;;;4997077;28;20033;-65
2023/02/17 01:20:22;;;;;;;28.77;19.60;;;10.50;98.20;;;;;;5009872;28;20056;-66
2023/02/17 01:23:09;;;;;;;24.88;17.85;;;10.50;98.20;;;;;;5009304;28;20480;-66
2023/02/17 01:25:55;;;;;;;29.13;19.05;;;10.40;98.20;;;;;;5009727;28;20557;-65
2023/02/17 01:28:41;;;;;;;28.52;19.45;;;10.40;98.30;;;;;;5010020;28;20044;-65
2023/02/17 01:31:28;;;;;;;25.73;18.00;;;10.40;98.30;;;;;;5011793;28;20033;-66
2023/02/17 01:34:14;;;;;;;30.35;19.90;;;10.50;98.40;;;;;;5009329;28;20048;-66
2023/02/17 01:37:00;;;;;;;28.88;19.02;;;10.50;98.60;;;;;;5009127;28;20113;-68
2023/02/17 01:39:46;;;;;;;24.75;17.98;;;10.50;98.40;;;;;;5011384;28;20160;-68
2023/02/17 01:42:32;;;;;;;29.83;19.25;;;10.50;98.40;;;;;;5008688;28;20029;-68
2023/02/17 01:45:18;;;;;;;25.67;18.63;;;10.50;98.40;;;;;;5010585;28;20041;-68
2023/02/17 01:48:04;;;;;;;27.60;19.60;;;10.40;98.40;;;;;;5012042;28;20759;-69
2023/02/17 01:50:59;;;;;;;28.20;18.90;;;10.50;98.50;;;;;;5014213;28;20033;-68
2023/02/17 01:53:56;;;;;;;24.63;18.00;;;10.50;98.50;;;;;;5017234;28;20428;-69
2023/02/17 01:56:45;;;;;;;27.10;18.27;;;10.50;98.50;;;;;;5013375;28;20098;-68
2023/02/17 01:59:31;;;;;;;26.25;18.42;;;10.50;98.50;;;;;;5011747;28;20058;-68
2023/02/17 02:02:17;;;;;;;28.05;19.02;;;10.50;98.50;;;;;;5015077;28;20033;-68
2023/02/17 02:05:04;;;;;;;26.45;17.85;;;10.50;98.60;;;;;;4999749;28;20033;-68
2023/02/17 02:07:51;;;;;;;27.95;19.48;;;10.50;98.60;;;;;;5011908;28;20061;-68
2023/02/17 02:10:37;;;;;;;32.38;19.70;;;10.50;98.90;;;;;;5014663;28;20120;-68
2023/02/17 02:13:23;;;;;;;25.27;17.80;;;10.50;98.80;;;;;;5012964;28;20029;-68
2023/02/17 02:16:23;;;;;;;28.85;18.63;;;10.50;98.90;;;;;;4999949;28;20038;-68
2023/02/17 02:19:31;;;;;;;29.77;18.13;;;10.40;99.00;;;;;;5011445;28;20042;-69
2023/02/17 02:22:36;;;;;;;25.80;18.20;;;10.50;99.10;;;;;;5010794;28;20245;-68
2023/02/17 02:25:31;;;;;;;28.90;18.53;;;10.40;99.20;;;;;;5014589;28;20404;-68
2023/02/17 02:28:33;;;;;;;27.75;18.33;;;10.40;99.20;;;;;;5010727;28;20077;-68
2023/02/17 02:31:52;;;;;;;28.00;17.85;;;10.40;99.30;;;;;;5011380;28;20037;-68
2023/02/17 02:34:51;;;;;;;32.58;19.35;;;10.30;99.50;;;;;;5011199;28;20052;-67
2023/02/17 02:38:00;;;;;;;25.33;17.38;;;10.30;99.60;;;;;;4999216;28;20038;-67
2023/02/17 02:40:51;;;;;;;27.15;19.15;;;10.30;99.70;;;;;;4996796;28;20033;-67
2023/02/17 02:43:38;;;;;;;24.42;18.15;;;10.30;99.70;;;;;;5014334;28;20480;-68
2023/02/17 02:46:24;;;;;;;26.92;18.90;;;10.30;99.80;;;;;;5011045;28;20029;-68
2023/02/17 02:49:10;;;;;;;26.33;18.77;;;10.30;99.90;;;;;;5016385;28;20029;-68
2023/02/17 02:52:22;;;;;;;27.30;19.58;;;10.30;99.90;;;;;;5010720;28;20034;-68
2023/02/17 02:55:27;;;;;;;29.10;19.95;;;10.30;99.90;;;;;;5011945;28;20576;-67
2023/02/17 02:58:13;;;;;;;26.95;18.17;;;10.30;99.90;;;;;;5012336;28;20030;-67
2023/02/17 03:01:14;;;;;;;32.17;19.40;;;10.30;99.90;;;;;;4991353;28;20158;-67
2023/02/17 03:04:18;;;;;;;26.80;19.65;;;10.30;99.90;;;;;;4981881;28;20057;-68
2023/02/17 03:07:21;;;;;;;31.40;20.63;;;10.20;99.90;;;;;;4992814;28;20085;-68
2023/02/17 03:10:08;;;;;;;30.65;19.70;;;10.20;99.90;;;;;;4992402;28;20037;-68
2023/02/17 03:12:54;;;;;;;28.38;19.75;;;10.20;99.90;;;;;;4993163;28;20038;-67
2023/02/17 03:15:40;;;;;;;28.25;19.20;;;10.20;99.90;;;;;;4992980;28;20121;-67
2023/02/17 03:18:26;;;;;;;28.35;19.80;;;10.20;99.90;;;;;;4992681;28;20038;-67
2023/02/17 03:21:15;;;;;;;32.28;21.15;;;10.20;99.90;;;;;;4994893;28;20499;-67
2023/02/17 03:24:01;;;;;;;27.95;19.67;;;10.20;99.90;;;;;;4992034;28;20258;-67
2023/02/17 03:26:47;;;;;;;32.72;20.75;;;10.20;99.90;;;;;;4979076;28;20066;-67
2023/02/17 03:29:33;;;;;;;28.38;19.95;;;10.20;99.90;;;;;;4993209;28;20045;-68
2023/02/17 03:32:19;;;;;;;30.88;21.08;;;10.20;99.90;;;;;;4992419;28;20030;-68
2023/02/17 03:35:05;;;;;;;28.15;19.35;;;10.20;99.90;;;;;;4993378;28;21579;-68
2023/02/17 03:37:51;;;;;;;30.77;20.73;;;10.20;99.90;;;;;;4992286;28;20038;-68
2023/02/17 03:40:37;;;;;;;33.78;20.33;;;10.20;99.90;;;;;;4992162;28;20100;-68
2023/02/17 03:43:23;;;;;;;30.02;20.27;;;10.20;99.90;;;;;;4981754;28;20077;-67
2023/02/17 03:46:11;;;;;;;28.15;19.90;;;10.20;99.90;;;;;;4991715;28;20034;-68
2023/02/17 03:48:57;;;;;;;28.60;20.10;;;10.20;99.90;;;;;;4993011;28;20030;-68
2023/02/17 03:51:43;;;;;;;26.95;19.35;;;10.20;99.90;;;;;;4981148;28;20481;-67
2023/02/17 03:54:29;;;;;;;29.17;20.20;;;10.10;99.90;;;;;;4993901;28;20135;-67
2023/02/17 03:57:15;;;;;;;30.75;21.15;;;10.20;99.90;;;;;;4991673;28;20032;-67
2023/02/17 04:00:02;;;;;;;31.20;20.35;;;10.20;99.90;;;;;;5006186;28;20065;-67
2023/02/17 04:02:48;;;;;;;28.25;18.92;;;10.20;99.90;;;;;;5012422;28;20048;-67
2023/02/17 04:05:34;;;;;;;26.27;19.02;;;10.20;99.90;;;;;;5010212;28;22075;-67
2023/02/17 04:08:20;;;;;;;29.35;20.77;;;10.20;99.90;;;;;;5012297;28;20539;-67
2023/02/17 04:11:08;;;;;;;28.20;20.00;;;10.20;99.90;;;;;;5008955;28;20048;-67
2023/02/17 04:13:54;;;;;;;32.72;20.48;;;10.20;99.90;;;;;;4995969;28;20053;-67
2023/02/17 04:16:40;;;;;;;27.92;20.50;;;10.20;99.90;;;;;;5009482;28;20026;-67
2023/02/17 04:19:26;;;;;;;26.15;19.77;;;10.20;99.90;;;;;;5010884;28;20517;-67
2023/02/17 04:22:11;;;;;;;38.50;21.25;;;10.20;99.90;;;;;;5009480;28;20116;-68
2023/02/17 04:24:57;;;;;;;30.00;21.00;;;10.20;99.90;;;;;;5008935;28;20048;-68
2023/02/17 04:27:43;;;;;;;29.27;19.83;;;10.20;99.90;;;;;;5005431;28;20465;-69
2023/02/17 04:30:30;;;;;;;25.95;19.48;;;10.20;99.90;;;;;;5011782;28;20045;-68
2023/02/17 04:33:16;;;;;;;28.27;20.73;;;10.20;99.90;;;;;;5009071;28;20034;-68
2023/02/17 04:36:03;;;;;;;27.40;19.98;;;10.20;99.90;;;;;;5010567;28;20048;-68
2023/02/17 04:38:49;;;;;;;30.08;20.50;;;10.20;99.90;;;;;;5010214;28;20037;-68
2023/02/17 04:41:35;;;;;;;30.98;21.27;;;10.20;99.90;;;;;;5008751;28;20029;-68
2023/02/17 04:44:20;;;;;;;30.65;19.70;;;10.20;99.90;;;;;;5009458;28;20045;-68
2023/02/17 04:47:06;;;;;;;26.70;18.80;;;10.10;99.90;;;;;;5013740;28;20126;-68
2023/02/17 04:49:52;;;;;;;27.33;19.25;;;10.10;99.90;;;;;;5008547;28;20470;-68
2023/02/17 04:52:38;;;;;;;25.80;19.05;;;10.20;99.90;;;;;;5008800;28;20029;-68
2023/02/17 04:55:24;;;;;;;25.98;18.48;;;10.20;99.90;;;;;;5008818;28;20052;-68
2023/02/17 04:58:10;;;;;;;29.48;20.13;;;10.10;99.90;;;;;;5008509;28;20033;-68
2023/02/17 05:00:57;;;;;;;26.77;18.75;;;10.10;99.90;;;;;;5008057;28;20047;-68
2023/02/17 05:03:43;;;;;;;25.58;17.77;;;10.20;99.90;;;;;;5007874;28;20100;-68
2023/02/17 05:06:29;;;;;;;22.27;16.80;;;10.20;99.90;;;;;;5009862;28;20548;-68
2023/02/17 05:09:15;;;;;;;27.00;19.20;;;10.20;99.90;;;;;;5010628;28;20435;-68
2023/02/17 05:12:01;;;;;;;24.35;17.85;;;10.20;99.90;;;;;;5007917;28;20329;-68
2023/02/17 05:14:47;;;;;;;26.85;18.17;;;10.20;99.90;;;;;;5007637;28;20041;-68
2023/02/17 05:17:34;;;;;;;28.80;19.10;;;10.20;99.90;;;;;;5007282;28;20049;-68
2023/02/17 05:20:20;;;;;;;26.35;17.98;;;10.10;99.90;;;;;;5008012;28;20548;-68
2023/02/17 05:23:06;;;;;;;27.85;18.70;;;10.10;99.90;;;;;;5009964;28;20033;-68
2023/02/17 05:25:52;;;;;;;26.88;18.50;;;10.10;99.90;;;;;;5011844;28;20116;-69
2023/02/17 05:28:38;;;;;;;26.20;18.80;;;10.10;99.90;;;;;;5012913;28;20025;-69
2023/02/17 05:31:24;;;;;;;30.20;20.08;;;10.10;99.90;;;;;;5014083;28;20033;-69
2023/02/17 05:34:11;;;;;;;29.55;19.73;;;10.10;99.90;;;;;;5013027;28;20579;-69
2023/02/17 05:36:57;;;;;;;28.17;19.08;;;10.10;99.90;;;;;;5013742;28;20033;-69
2023/02/17 05:39:42;;;;;;;27.85;19.55;;;10.10;99.90;;;;;;5010762;28;20107;-69
2023/02/17 05:42:28;;;;;;;26.65;18.73;;;10.10;99.90;;;;;;5013142;28;20042;-68
2023/02/17 05:45:14;;;;;;;26.90;18.73;;;10.20;99.90;;;;;;5010205;28;20042;-68
2023/02/17 05:48:00;;;;;;;27.70;18.63;;;10.10;99.90;;;;;;5018740;28;20108;-68
2023/02/17 05:50:46;;;;;;;25.02;17.55;;;10.10;99.90;;;;;;5012783;28;20072;-68
2023/02/17 05:53:32;;;;;;;24.00;17.60;;;10.10;99.90;;;;;;5012184;28;20045;-68
2023/02/17 05:56:19;;;;;;;25.88;17.35;;;10.10;99.90;;;;;;5011476;28;20041;-68
2023/02/17 05:59:04;;;;;;;28.25;17.80;;;10.20;99.90;;;;;;4999272;28;20057;-68
2023/02/17 06:01:50;;;;;;;23.55;17.15;;;10.20;99.90;;;;;;4998149;28;20485;-68
2023/02/17 06:04:37;;;;;;;26.70;18.80;;;10.20;99.90;;;;;;5012813;28;20556;-69
2023/02/17 06:07:22;;;;;;;26.95;18.70;;;10.20;99.90;;;;;;5011702;28;20037;-68
2023/02/17 06:10:09;;;;;;;24.20;17.65;;;10.20;99.90;;;;;;5011796;28;20551;-68
2023/02/17 06:12:55;;;;;;;27.95;18.85;;;10.20;99.90;;;;;;5011359;28;20037;-68
2023/02/17 06:15:41;;;;;;;27.25;17.33;;;10.20;99.90;;;;;;5011939;28;20115;-68
2023/02/17 06:18:27;;;;;;;26.33;19.08;;;10.20;99.90;;;;;;5005275;28;20393;-68
2023/02/17 06:21:13;;;;;;;24.52;17.85;;;10.20;99.90;;;;;;5011057;28;20034;-68
2023/02/17 06:23:59;;;;;;;25.77;17.92;;;10.20;99.90;;;;;;5011100;28;20111;-68
2023/02/17 06:26:45;;;;;;;28.27;18.05;;;10.20;99.90;;;;;;5009131;28;20033;-68
2023/02/17 06:29:31;;;;;;;25.45;18.48;;;10.30;99.90;;;;;;5012239;28;20037;-66
2023/02/17 06:32:17;;;;;;;25.92;18.08;;;10.20;99.90;;;;;;5011022;28;20033;-67
2023/02/17 06:35:03;;;;;;;27.75;18.23;;;10.20;99.90;;;;;;5010416;28;20049;-68
2023/02/17 06:37:49;;;;;;;25.38;18.52;;;10.20;99.90;;;;;;5012053;28;20022;-68
2023/02/17 06:40:35;;;;;;;25.23;17.25;;;10.20;99.90;;;;;;5012264;28;20406;-68
2023/02/17 06:43:21;;;;;;;25.77;18.70;;;10.20;99.90;;;;;;5000987;28;20733;-68
2023/02/17 06:46:07;;;;;;;27.05;17.85;;;10.20;99.90;;;;;;5010387;28;20050;-68
2023/02/17 06:48:52;;;;;;;25.85;18.42;;;10.20;99.90;;;;;;5006286;28;20032;-66
2023/02/17 06:51:39;;;;;;;25.20;17.73;;;10.30;99.90;;;;;;5016140;28;20397;-66
2023/02/17 06:54:25;;;;;;;23.63;17.10;;;10.30;99.90;;;;;;5012670;28;20042;-66
2023/02/17 06:57:11;;;;;;;21.98;16.20;;;10.30;99.90;;;;;;5001573;28;20029;-67
2023/02/17 06:59:56;;;;;;;23.10;16.08;;;10.40;99.90;;;;;;5008274;28;20141;-66
2023/02/17 07:02:42;;;;;;;22.10;16.45;;;10.40;99.90;;;;;;5011697;28;20473;-68
2023/02/17 07:05:28;;;;;;;23.95;17.80;;;10.40;99.90;;;;;;5011840;28;20046;-68
2023/02/17 07:08:14;;;;;;;21.45;15.35;;;10.40;99.90;;;;;;5008303;28;20492;-68
2023/02/17 07:11:11;;;;;;;27.25;17.50;;;10.40;99.90;;;;;;5014290;28;20065;-68
2023/02/17 07:13:57;;;;;;;21.48;16.13;;;10.50;99.90;;;;;;5010369;28;20503;-68
2023/02/17 07:16:43;;;;;;;22.20;15.20;;;10.50;99.90;;;;;;5009711;28;20373;-68
2023/02/17 07:19:29;;;;;;;21.33;15.18;;;10.50;99.90;;;;;;4997474;28;20488;-68
2023/02/17 07:22:15;;;;;;;22.52;15.32;;;10.60;99.90;;;;;;5011396;28;20048;-68
2023/02/17 07:25:01;;;;;;;21.65;14.60;;;10.60;99.90;;;;;;5012578;28;20041;-68
2023/02/17 07:27:47;;;;;;;18.60;13.55;;;10.70;99.90;;;;;;4996810;28;20042;-69
2023/02/17 07:30:37;;;;;;;20.00;15.50;;;10.70;99.90;;;;;;5010880;28;20045;-69
2023/02/17 07:33:23;;;;;;;19.05;14.25;;;10.70;99.90;;;;;;5009784;28;20077;-68
2023/02/17 07:36:12;;;;;;;20.30;14.15;;;10.70;99.90;;;;;;5009840;28;20555;-68
2023/02/17 07:38:58;;;;;;;23.10;15.27;;;10.80;99.90;;;;;;5008375;28;20034;-68
2023/02/17 07:41:44;;;;;;;20.42;15.32;;;10.80;99.90;;;;;;5010122;28;20045;-68
2023/02/17 07:44:30;;;;;;;20.02;14.90;;;10.80;99.90;;;;;;4994724;28;20056;-68
2023/02/17 07:47:16;;;;;;;19.90;14.43;;;10.90;99.90;;;;;;5002857;28;20033;-68
2023/02/17 07:50:02;;;;;;;20.63;14.57;;;10.90;99.90;;;;;;5011134;28;20041;-68
2023/02/17 07:52:49;;;;;;;21.73;14.18;;;10.90;99.90;;;;;;5012307;28;20122;-68
2023/02/17 07:55:35;;;;;;;19.98;13.98;;;11.00;99.90;;;;;;5010554;28;20049;-68
2023/02/17 07:58:21;;;;;;;20.63;14.13;;;11.00;99.90;;;;;;5010419;28;20224;-68
2023/02/17 08:01:09;;;;;;;17.98;12.93;;;11.10;99.90;;;;;;4990640;28;20076;-68
2023/02/17 08:03:55;;;;;;;19.17;14.50;;;11.10;99.90;;;;;;4993086;28;20041;-68
2023/02/17 08:06:41;;;;;;;20.10;14.38;;;11.10;99.90;;;;;;4989701;28;20466;-68
2023/02/17 08:15:36;;;;;;;19.38;13.27;;;11.30;99.90;;;;;;4989872;28;20062;-68
2023/02/17 08:18:22;;;;;;;18.77;13.27;;;11.30;99.90;;;;;;4990633;28;20478;-68
2023/02/17 08:21:08;;;;;;;15.60;12.02;;;11.30;99.90;;;;;;4982258;28;20426;-67
2023/02/17 08:23:55;;;;;;;16.17;12.30;;;11.30;99.90;;;;;;4990290;28;20033;-68
2023/02/17 08:26:41;;;;;;;16.55;12.27;;;11.40;99.90;;;;;;4990381;28;20389;-68
2023/02/17 08:29:27;;;;;;;18.67;14.52;;;11.40;99.90;;;;;;4991596;28;20394;-68
2023/02/17 08:32:15;;;;;;;16.05;12.07;;;11.40;99.90;;;;;;4991524;28;20045;-67
2023/02/17 08:35:01;;;;;;;17.20;11.77;;;11.40;99.90;;;;;;4990483;28;21015;-67
2023/02/17 08:37:47;;;;;;;18.00;13.32;;;11.50;99.90;;;;;;4990002;28;20022;-67
2023/02/17 08:40:33;;;;;;;17.85;12.40;;;11.50;99.90;;;;;;4978702;28;20474;-67
2023/02/17 08:43:19;;;;;;;14.68;11.05;;;11.50;99.90;;;;;;4992350;28;21680;-68
2023/02/17 08:46:10;;;;;;;18.33;12.32;;;11.50;99.90;;;;;;4991175;28;20073;-68
2023/02/17 08:48:56;;;;;;;18.83;11.95;;;11.50;99.90;;;;;;4990281;28;20057;-67
2023/02/17 08:51:42;;;;;;;16.60;12.00;;;11.50;99.90;;;;;;4994287;28;20042;-66
2023/02/17 08:54:28;;;;;;;15.55;11.60;;;11.50;99.90;;;;;;4989693;28;20045;-68
2023/02/17 08:57:14;;;;;;;15.30;11.55;;;11.50;99.90;;;;;;4984785;28;20529;-66
2023/02/17 09:00:00;;;;;;;15.68;12.32;;;11.50;99.90;;;;;;5001462;28;21104;-66
2023/02/17 09:02:46;;;;;;;15.43;12.30;;;11.60;99.90;;;;;;5011028;28;20037;-64
2023/02/17 09:05:34;;;;;;;17.73;11.48;;;11.60;99.90;;;;;;5009781;28;20034;-69
2023/02/17 09:08:20;;;;;;;15.25;11.70;;;11.60;99.90;;;;;;5010793;28;20095;-67
2023/02/17 09:11:07;;;;;;;22.23;11.73;;;11.70;99.90;;;;;;5008030;28;20041;-67
2023/02/17 09:13:53;;;;;;;16.05;11.82;;;11.70;99.90;;;;;;5009200;28;20057;-65
2023/02/17 09:16:39;;;;;;;16.27;11.85;;;11.70;99.90;;;;;;5011266;28;20029;-67
2023/02/17 09:19:26;;;;;;;15.20;11.25;;;11.70;99.90;;;;;;5011209;28;20497;-67
2023/02/17 09:22:13;;;;;;;16.88;12.40;;;11.70;99.90;;;;;;5007554;28;20026;-67
2023/02/17 09:24:59;;;;;;;15.88;11.50;;;11.70;99.90;;;;;;4992239;28;20176;-67
2023/02/17 09:27:45;;;;;;;15.48;12.25;;;11.70;99.90;;;;;;5010676;28;20029;-67
2023/02/17 09:30:31;;;;;;;15.55;11.75;;;11.80;99.90;;;;;;5008629;28;20493;-66
2023/02/17 09:33:17;;;;;;;15.25;11.27;;;11.80;99.90;;;;;;5010764;28;20038;-65
2023/02/17 09:36:05;;;;;;;14.48;11.48;;;11.80;99.90;;;;;;5007954;28;20038;-65
2023/02/17 09:38:52;;;;;;;14.23;10.70;;;11.80;99.90;;;;;;5007971;28;20061;-65
2023/02/17 09:41:43;;;;;;;15.25;11.52;;;11.80;99.90;;;;;;5007508;28;20029;-65
2023/02/17 09:44:43;;;;;;;15.05;11.23;;;11.70;99.90;;;;;;5002258;28;20073;-65
2023/02/17 09:47:37;;;;;;;18.13;12.85;;;11.80;99.90;;;;;;5012096;28;20627;-66
2023/02/17 09:50:41;;;;;;;16.23;12.18;;;11.80;99.90;;;;;;5008501;28;20117;-65
2023/02/17 09:53:47;;;;;;;16.48;12.07;;;11.80;99.90;;;;;;5004113;28;20045;-65
2023/02/17 09:56:38;;;;;;;15.07;11.23;;;11.80;99.90;;;;;;5008269;28;20040;-65
2023/02/17 09:59:35;;;;;;;15.55;11.90;;;11.80;99.90;;;;;;4997591;28;20591;-65
2023/02/17 10:02:44;;;;;;;15.60;12.50;;;11.80;99.90;;;;;;5009612;28;20100;-65
2023/02/17 10:05:37;;;;;;;16.77;11.88;;;11.80;99.90;;;;;;5007649;28;20038;-65
2023/02/17 10:08:30;;;;;;;14.23;11.65;;;11.80;99.90;;;;;;5008161;28;20033;-66
2023/02/17 10:11:39;;;;;;;17.35;12.82;;;11.80;99.90;;;;;;5003992;28;20066;-65
2023/02/17 10:14:34;;;;;;;15.95;12.38;;;11.80;99.90;;;;;;5012249;28;20448;-65
2023/02/17 10:17:38;;;;;;;16.98;12.15;;;11.80;99.90;;;;;;5012829;28;20055;-65
2023/02/17 10:20:40;;;;;;;16.10;11.45;;;11.80;99.90;;;;;;5012790;28;20026;-65
2023/02/17 10:23:27;;;;;;;21.15;12.05;;;11.70;99.90;;;;;;5012654;28;20116;-65
2023/02/17 10:26:54;;;;;;;15.13;11.80;;;11.80;99.90;;;;;;5012432;28;20036;-64
2023/02/17 10:30:04;;;;;;;15.32;11.13;;;11.80;99.90;;;;;;4964807;28;20527;-65
2023/02/17 10:33:09;;;;;;;16.50;12.00;;;11.90;99.90;;;;;;5011682;28;20036;-65
2023/02/17 10:36:35;;;;;;;16.35;12.18;;;11.90;99.90;;;;;;5013613;28;20042;-65
2023/02/17 10:39:41;;;;;;;15.60;12.27;;;11.90;99.90;;;;;;4986544;28;20041;-66
2023/02/17 10:42:33;;;;;;;17.40;12.63;;;11.90;99.90;;;;;;4995813;28;20797;-65
2023/02/17 10:45:34;;;;;;;18.15;12.48;;;11.90;99.90;;;;;;5011832;28;20058;-66
2023/02/17 10:48:29;;;;;;;17.25;12.23;;;11.90;99.90;;;;;;5007960;28;20147;-66
2023/02/17 10:51:19;;;;;;;17.63;12.45;;;11.90;99.90;;;;;;5017400;28;20042;-65
2023/02/17 10:54:16;;;;;;;13.88;10.68;;;11.90;99.90;;;;;;4998510;28;20072;-66
2023/02/17 10:57:07;;;;;;;15.25;11.90;;;12.00;99.90;;;;;;5011755;28;20034;-65
2023/02/17 10:59:53;;;;;;;15.93;11.50;;;12.00;99.90;;;;;;4998879;28;20045;-66
2023/02/17 11:02:42;;;;;;;14.32;11.73;;;12.00;99.90;;;;;;4992810;28;20034;-66
2023/02/17 11:05:32;;;;;;;16.13;11.80;;;12.10;99.90;;;;;;4973518;28;20049;-66
2023/02/17 11:08:39;;;;;;;17.75;12.52;;;12.10;99.90;;;;;;4993217;28;20034;-67
2023/02/17 11:11:29;;;;;;;16.65;12.32;;;12.10;99.90;;;;;;4992058;28;20097;-65
2023/02/17 11:14:27;;;;;;;16.55;12.38;;;12.10;99.90;;;;;;4992586;28;20339;-68
2023/02/17 11:17:28;;;;;;;18.73;11.77;;;12.20;99.90;;;;;;4977847;28;20050;-67
2023/02/17 11:20:14;;;;;;;14.25;11.93;;;12.20;99.90;;;;;;4987833;28;20391;-67
2023/02/17 11:23:03;;;;;;;19.25;13.35;;;12.20;99.90;;;;;;4987611;28;20027;-68
2023/02/17 11:26:06;;;;;;;17.23;12.98;;;12.20;99.90;;;;;;4994548;28;20089;-67
2023/02/17 11:28:53;;;;;;;15.90;12.02;;;12.20;99.90;;;;;;4975708;28;20148;-67
2023/02/17 11:31:39;;;;;;;20.40;12.32;;;12.30;99.90;;;;;;4992703;28;20559;-67
2023/02/17 11:34:28;;;;;;;14.18;12.02;;;12.30;99.90;;;;;;4993287;28;20133;-67
2023/02/17 11:37:20;;;;;;;17.80;13.40;;;12.40;99.90;;;;;;4991266;28;20023;-66
2023/02/17 11:40:24;;;;;;;16.90;13.13;;;12.30;99.90;;;;;;4990590;28;20189;-66
2023/02/17 11:43:17;;;;;;;14.60;11.32;;;12.40;99.90;;;;;;4989081;28;20034;-66
2023/02/17 11:46:26;;;;;;;14.32;11.38;;;12.50;99.90;;;;;;4977965;28;20023;-66
2023/02/17 11:49:24;;;;;;;13.02;9.75;;;12.40;99.90;;;;;;4996095;28;20042;-66
2023/02/17 11:52:25;;;;;;;15.82;11.27;;;12.50;99.90;;;;;;4992117;28;20035;-67
2023/02/17 11:55:44;;;;;;;15.40;11.65;;;12.50;99.90;;;;;;4990006;28;20211;-65
2023/02/17 11:59:01;;;;;;;13.43;10.77;;;12.60;99.90;;;;;;4990082;28;20031;-66
2023/02/17 12:02:20;;;;;;;17.00;10.93;;;12.60;99.90;;;;;;5010286;28;20417;-65
2023/02/17 12:05:38;;;;;;;12.88;10.30;;;12.60;99.90;;;;;;5009551;28;20510;-66
2023/02/17 12:08:45;;;;;;;13.43;9.85;;;12.70;99.90;;;;;;5009625;28;20139;-65
2023/02/17 12:11:40;;;;;;;11.98;9.25;;;12.70;99.90;;;;;;5009914;28;20041;-66
2023/02/17 12:14:48;;;;;;;11.20;8.68;;;12.70;99.90;;;;;;5008345;28;20404;-66
2023/02/17 12:18:13;;;;;;;12.63;8.73;;;12.70;99.90;;;;;;5009431;28;20083;-66
2023/02/17 12:21:26;;;;;;;11.10;7.70;;;12.80;99.90;;;;;;4984141;28;20049;-66
2023/02/17 12:24:31;;;;;;;10.82;8.73;;;12.80;99.90;;;;;;5011025;28;20041;-67
2023/02/17 12:27:29;;;;;;;11.63;8.82;;;12.80;99.90;;;;;;5010259;28;20033;-67
2023/02/17 12:30:18;;;;;;;11.35;8.60;;;12.80;99.90;;;;;;5010557;28;20041;-67
2023/02/17 12:33:22;;;;;;;11.23;7.50;;;12.90;99.90;;;;;;5007366;28;20037;-67
2023/02/17 12:36:10;;;;;;;10.25;7.78;;;13.00;99.90;;;;;;5011498;28;20120;-67
2023/02/17 12:39:01;;;;;;;11.15;8.35;;;13.00;99.90;;;;;;5010407;28;20040;-66
2023/02/17 12:42:10;;;;;;;9.45;7.22;;;13.00;99.90;;;;;;5006980;28;20362;-66
2023/02/17 12:45:04;;;;;;;17.33;7.80;;;13.10;99.90;;;;;;5012599;28;20530;-66
2023/02/17 12:48:00;;;;;;;9.02;6.88;;;13.20;99.90;;;;;;4998325;28;20096;-67
2023/02/17 12:51:04;;;;;;;8.98;6.90;;;13.20;99.90;;;;;;5014628;28;20041;-66
2023/02/17 12:54:05;;;;;;;7.93;6.63;;;13.30;99.90;;;;;;5007471;28;20040;-66
2023/02/17 12:57:09;;;;;;;9.15;6.35;;;13.30;99.90;;;;;;5006369;28;20509;-67
2023/02/17 12:59:57;;;;;;;9.70;6.60;;;13.30;99.90;;;;;;5007752;28;20133;-67
2023/02/17 13:02:43;;;;;;;8.40;6.32;;;13.40;99.90;;;;;;5009460;28;20040;-67
2023/02/17 13:05:33;;;;;;;8.00;6.22;;;13.40;99.90;;;;;;5009175;28;20717;-66
2023/02/17 13:08:28;;;;;;;7.15;5.70;;;13.50;99.90;;;;;;5009639;28;20121;-67
2023/02/17 13:11:29;;;;;;;9.15;6.95;;;13.50;99.90;;;;;;5007378;28;20505;-66
2023/02/17 13:14:37;;;;;;;8.48;6.55;;;13.50;99.90;;;;;;5006218;28;20053;-66
2023/02/17 13:18:00;;;;;;;8.10;6.55;;;13.60;99.90;;;;;;5008131;28;20523;-68
2023/02/17 13:20:58;;;;;;;8.98;7.40;;;13.60;99.90;;;;;;5003185;28;20509;-66
2023/02/17 13:23:59;;;;;;;7.78;6.35;;;13.60;99.90;;;;;;5006807;28;20486;-65
2023/02/17 13:26:45;;;;;;;9.52;6.45;;;13.60;99.90;;;;;;4998298;28;20457;-66
2023/02/17 13:29:34;;;;;;;8.13;6.35;;;13.60;99.90;;;;;;5004270;28;20049;-65
2023/02/17 13:32:28;;;;;;;10.63;6.30;;;13.70;99.90;;;;;;5010258;28;20042;-65
2023/02/17 13:35:29;;;;;;;8.05;5.88;;;13.70;99.90;;;;;;4994798;28;20485;-64
2023/02/17 13:38:29;;;;;;;8.65;5.68;;;13.70;99.90;;;;;;4997576;28;20088;-65
2023/02/17 13:41:16;;;;;;;7.15;5.93;;;13.80;99.90;;;;;;4993091;28;20391;-64
2023/02/17 13:44:26;;;;;;;7.95;6.22;;;13.80;99.90;;;;;;5008529;28;20036;-64
2023/02/17 13:47:31;;;;;;;7.00;5.25;;;13.80;99.90;;;;;;5017665;28;20033;-65
2023/02/17 13:50:49;;;;;;;7.83;5.93;;;13.90;99.90;;;;;;5009973;28;20120;-65
2023/02/17 13:53:39;;;;;;;9.02;5.00;;;13.90;99.90;;;;;;5011720;28;20302;-64
2023/02/17 13:56:29;;;;;;;6.57;4.50;;;13.90;99.90;;;;;;5012638;28;20038;-64
2023/02/17 13:59:17;;;;;;;6.15;4.15;;;13.90;99.90;;;;;;4985161;28;20053;-65
2023/02/17 14:02:03;;;;;;;6.55;4.50;;;14.00;99.90;;;;;;5012151;28;21986;-65
2023/02/17 14:04:49;;;;;;;8.77;4.78;;;14.00;99.90;;;;;;5012924;28;20029;-66
2023/02/17 14:07:35;;;;;;;6.97;4.18;;;14.00;99.90;;;;;;5013817;28;21579;-64
2023/02/17 14:10:24;;;;;;;5.22;4.05;;;14.00;99.90;;;;;;5001904;28;20116;-65
2023/02/17 14:13:11;;;;;;;7.45;4.20;;;14.00;99.90;;;;;;5010985;28;20037;-65
2023/02/17 14:15:58;;;;;;;6.20;3.97;;;14.10;99.90;;;;;;5012137;28;20046;-65
2023/02/17 14:18:44;;;;;;;6.70;4.15;;;14.10;99.90;;;;;;5013784;28;20033;-65
2023/02/17 14:21:30;;;;;;;6.38;3.78;;;14.10;99.90;;;;;;5010388;28;20065;-64
2023/02/17 14:24:25;;;;;;;5.00;3.75;;;14.10;99.90;;;;;;5010115;28;20065;-64
2023/02/17 14:27:12;;;;;;;5.00;3.97;;;14.10;99.90;;;;;;5013095;28;20043;-64
2023/02/17 14:29:58;;;;;;;6.53;4.40;;;14.10;99.90;;;;;;5010857;28;20104;-66
2023/02/17 14:32:44;;;;;;;7.25;4.47;;;14.10;99.90;;;;;;5011075;28;20556;-65
2023/02/17 14:35:32;;;;;;;6.22;4.68;;;14.20;99.90;;;;;;5005431;28;20053;-66
2023/02/17 14:38:21;;;;;;;6.90;4.72;;;14.10;99.90;;;;;;5012996;28;20464;-67